createdAt,value
2018-05-23T00:00:03.306Z,12.78
2018-05-23T00:01:13.322Z,12.84
2018-05-23T00:02:23.067Z,12.81
2018-05-23T00:03:33.078Z,12.81
2018-05-23T00:04:42.824Z,12.66
2018-05-23T00:05:52.829Z,12.65
2018-05-23T00:07:02.842Z,12.66
2018-05-23T00:08:12.858Z,12.69
2018-05-23T00:09:22.604Z,12.69
2018-05-23T00:10:32.085Z,12.72
2018-05-23T00:11:42.100Z,12.63
2018-05-23T00:12:51.849Z,12.62
2018-05-23T00:14:01.862Z,12.58
2018-05-23T00:15:11.345Z,12.69
2018-05-23T00:16:21.115Z,12.66
2018-05-23T00:17:31.136Z,12.65
2018-05-23T00:18:41.191Z,12.62
2018-05-23T00:19:51.205Z,12.61
2018-05-23T00:21:01.222Z,12.65
2018-05-23T00:22:11.242Z,12.58
2018-05-23T00:23:21.252Z,12.54
2018-05-23T00:24:30.737Z,12.58
2018-05-23T00:25:40.760Z,12.53
2018-05-23T00:26:50.785Z,12.45
2018-05-23T00:28:00.523Z,12.4
2018-05-23T00:29:10.280Z,12.45
2018-05-23T00:30:20.029Z,12.36
2018-05-23T00:31:29.777Z,12.44
2018-05-23T00:32:39.527Z,12.39
2018-05-23T00:33:49.537Z,12.32
2018-05-23T00:34:59.552Z,12.39
2018-05-23T00:36:08.765Z,12.3
2018-05-23T00:37:18.521Z,12.32
2018-05-23T00:38:28.536Z,12.28
2018-05-23T00:39:38.618Z,12.2
2018-05-23T00:40:48.637Z,12.23
2018-05-23T00:41:58.122Z,12.15
2018-05-23T00:43:07.869Z,12.17
2018-05-23T00:44:17.880Z,12.2
2018-05-23T00:45:27.629Z,12.25
2018-05-23T00:46:37.106Z,12.18
2018-05-23T00:47:46.583Z,12.15
2018-05-23T00:48:56.331Z,12.15
2018-05-23T00:50:06.350Z,12.15
2018-05-23T00:51:15.892Z,12.14
2018-05-23T00:52:25.639Z,12.14
2018-05-23T00:53:35.394Z,12.08
2018-05-23T00:54:45.133Z,12.14
2018-05-23T00:55:54.881Z,12.12
2018-05-23T00:57:04.888Z,12.11
2018-05-23T00:58:14.636Z,11.97
2018-05-23T00:59:24.378Z,12.02
2018-05-23T01:00:34.127Z,12.03
2018-05-23T01:01:43.870Z,12.02
2018-05-23T01:02:53.877Z,11.93
2018-05-23T01:04:03.643Z,11.93
2018-05-23T01:05:13.385Z,11.93
2018-05-23T01:06:23.134Z,11.89
2018-05-23T01:07:33.159Z,11.89
2018-05-23T01:08:43.168Z,11.91
2018-05-23T01:09:53.182Z,11.88
2018-05-23T01:11:02.929Z,11.8
2018-05-23T01:12:12.488Z,11.76
2018-05-23T01:13:22.503Z,11.74
2018-05-23T01:14:32.526Z,11.68
2018-05-23T01:15:42.552Z,11.67
2018-05-23T01:16:52.039Z,11.7
2018-05-23T01:18:01.516Z,11.63
2018-05-23T01:19:10.997Z,11.63
2018-05-23T01:20:21.009Z,11.58
2018-05-23T01:21:31.022Z,11.53
2018-05-23T01:22:40.233Z,11.49
2018-05-23T01:23:50.335Z,11.48
2018-05-23T01:25:00.352Z,11.4
2018-05-23T01:26:09.561Z,11.48
2018-05-23T01:27:19.575Z,11.41
2018-05-23T01:28:29.586Z,11.33
2018-05-23T01:29:39.607Z,11.31
2018-05-23T01:30:49.362Z,11.38
2018-05-23T01:31:59.386Z,11.38
2018-05-23T01:33:09.135Z,11.4
2018-05-23T01:34:18.876Z,11.37
2018-05-23T01:35:28.671Z,11.3
2018-05-23T01:36:38.146Z,11.27
2018-05-23T01:37:47.634Z,11.23
2018-05-23T01:38:57.657Z,11.27
2018-05-23T01:40:07.403Z,11.23
2018-05-23T01:41:17.149Z,11.22
2018-05-23T01:42:27.158Z,11.18
2018-05-23T01:43:37.169Z,11.22
2018-05-23T01:44:47.189Z,11.2
2018-05-23T01:45:56.940Z,11.23
2018-05-23T01:47:06.686Z,11.26
2018-05-23T01:48:16.440Z,11.19
2018-05-23T01:49:26.450Z,11.27
2018-05-23T01:50:36.194Z,11.26
2018-05-23T01:51:45.935Z,11.23
2018-05-23T01:52:55.145Z,11.3
2018-05-23T01:54:05.156Z,11.26
2018-05-23T01:55:14.915Z,11.31
2018-05-23T01:56:24.927Z,11.23
2018-05-23T01:57:34.966Z,11.35
2018-05-23T01:58:44.977Z,11.34
2018-05-23T01:59:54.468Z,11.35
2018-05-23T02:01:04.220Z,11.34
2018-05-23T02:02:14.243Z,11.38
2018-05-23T02:03:23.984Z,11.37
2018-05-23T02:04:33.824Z,11.31
2018-05-23T02:05:43.301Z,11.35
2018-05-23T02:06:53.312Z,11.34
2018-05-23T02:08:03.063Z,11.31
2018-05-23T02:09:13.078Z,11.26
2018-05-23T02:10:23.134Z,11.3
2018-05-23T02:11:32.620Z,11.22
2018-05-23T02:12:42.370Z,11.25
2018-05-23T02:13:52.454Z,11.23
2018-05-23T02:15:02.468Z,11.22
2018-05-23T02:16:12.475Z,11.2
2018-05-23T02:17:22.488Z,11.2
2018-05-23T02:18:32.498Z,11.18
2018-05-23T02:19:42.529Z,11.2
2018-05-23T02:20:52.277Z,11.13
2018-05-23T02:22:01.859Z,11.1
2018-05-23T02:23:11.334Z,11.08
2018-05-23T02:24:21.080Z,11.13
2018-05-23T02:25:30.822Z,11.1
2018-05-23T02:26:40.622Z,11.12
2018-05-23T02:27:50.384Z,11.12
2018-05-23T02:29:00.390Z,11.02
2018-05-23T02:30:09.867Z,11.05
2018-05-23T02:31:19.881Z,11.1
2018-05-23T02:32:29.093Z,11.12
2018-05-23T02:33:38.836Z,10.98
2018-05-23T02:34:48.857Z,11.07
2018-05-23T02:35:58.342Z,11.02
2018-05-23T02:37:08.088Z,11
2018-05-23T02:38:17.576Z,11.04
2018-05-23T02:39:27.338Z,11.05
2018-05-23T02:40:37.361Z,11.04
2018-05-23T02:41:47.233Z,11.02
2018-05-23T02:42:57.262Z,11.04
2018-05-23T02:44:07.014Z,10.97
2018-05-23T02:45:17.381Z,10.9
2018-05-23T02:46:27.133Z,10.92
2018-05-23T02:47:36.884Z,10.95
2018-05-23T02:48:46.632Z,10.92
2018-05-23T02:49:56.648Z,10.87
2018-05-23T02:51:05.861Z,10.92
2018-05-23T02:52:15.665Z,10.86
2018-05-23T02:53:24.875Z,10.86
2018-05-23T02:54:34.899Z,10.86
2018-05-23T02:55:44.934Z,10.82
2018-05-23T02:56:54.709Z,10.8
2018-05-23T02:58:04.193Z,10.84
2018-05-23T02:59:14.224Z,10.75
2018-05-23T03:03:33.308Z,10.76
2018-05-23T03:04:43.349Z,10.67
2018-05-23T03:05:53.361Z,10.83
2018-05-23T03:07:03.112Z,10.79
2018-05-23T03:08:12.865Z,10.86
2018-05-23T03:09:22.887Z,10.83
2018-05-23T03:10:32.965Z,10.83
2018-05-23T03:11:42.978Z,10.83
2018-05-23T03:12:52.734Z,10.86
2018-05-23T03:14:02.750Z,10.87
2018-05-23T03:15:12.775Z,10.92
2018-05-23T03:16:22.786Z,10.87
2018-05-23T03:17:32.528Z,10.86
2018-05-23T03:18:42.540Z,10.95
2018-05-23T03:19:52.285Z,10.9
2018-05-23T03:21:02.314Z,10.97
2018-05-23T03:22:12.579Z,10.94
2018-05-23T03:23:22.212Z,11
2018-05-23T03:24:32.229Z,10.92
2018-05-23T03:25:41.971Z,10.89
2018-05-23T03:26:51.778Z,10.89
2018-05-23T03:28:01.529Z,11.05
2018-05-23T03:29:11.279Z,10.98
2018-05-23T03:30:21.290Z,11.02
2018-05-23T03:31:31.043Z,11.08
2018-05-23T03:32:41.065Z,11.05
2018-05-23T03:33:51.074Z,11.08
2018-05-23T03:35:00.826Z,11.08
2018-05-23T03:36:10.844Z,11.15
2018-05-23T03:37:20.590Z,11.19
2018-05-23T03:38:30.341Z,11.26
2018-05-23T03:39:40.129Z,11.2
2018-05-23T03:40:50.150Z,11.25
2018-05-23T03:42:00.173Z,11.26
2018-05-23T03:43:09.941Z,11.3
2018-05-23T03:44:19.687Z,11.3
2018-05-23T03:45:29.166Z,11.31
2018-05-23T03:46:38.909Z,11.31
2018-05-23T03:47:48.925Z,11.4
2018-05-23T03:48:58.934Z,11.45
2018-05-23T03:50:08.417Z,11.43
2018-05-23T03:51:18.165Z,11.44
2018-05-23T03:52:27.907Z,11.41
2018-05-23T03:53:37.729Z,11.43
2018-05-23T03:54:47.741Z,11.51
2018-05-23T03:55:57.748Z,11.45
2018-05-23T03:57:07.766Z,11.44
2018-05-23T03:58:17.794Z,11.52
2018-05-23T03:59:27.807Z,11.48
2018-05-23T04:00:37.823Z,11.51
2018-05-23T04:01:47.575Z,11.49
2018-05-23T04:02:57.067Z,11.52
2018-05-23T04:04:06.547Z,11.59
2018-05-23T04:05:16.566Z,11.55
2018-05-23T04:06:26.312Z,11.65
2018-05-23T04:07:36.385Z,11.63
2018-05-23T04:08:45.864Z,11.59
2018-05-23T04:09:55.880Z,11.67
2018-05-23T04:11:05.627Z,11.63
2018-05-23T04:12:14.572Z,11.7
2018-05-23T04:13:24.582Z,11.78
2018-05-23T04:14:34.593Z,11.74
2018-05-23T04:15:44.344Z,11.76
2018-05-23T04:16:54.364Z,11.8
2018-05-23T04:18:04.381Z,11.85
2018-05-23T04:19:14.412Z,11.86
2018-05-23T04:20:23.884Z,11.85
2018-05-23T04:21:33.892Z,11.93
2018-05-23T04:22:43.632Z,11.95
2018-05-23T04:23:53.653Z,12
2018-05-23T04:25:04.011Z,11.99
2018-05-23T04:26:14.033Z,12.11
2018-05-23T04:27:24.050Z,12
2018-05-23T04:28:33.807Z,12.08
2018-05-23T04:29:43.819Z,12.18
2018-05-23T04:30:53.560Z,12.17
2018-05-23T04:32:03.590Z,12.15
2018-05-23T04:33:13.605Z,12.17
2018-05-23T04:34:23.623Z,12.25
2018-05-23T04:35:33.106Z,12.21
2018-05-23T04:36:42.855Z,12.25
2018-05-23T04:37:52.603Z,12.3
2018-05-23T04:39:02.617Z,12.35
2018-05-23T04:40:12.359Z,12.36
2018-05-23T04:41:22.371Z,12.35
2018-05-23T04:42:32.392Z,12.33
2018-05-23T04:43:42.138Z,12.39
2018-05-23T04:44:51.890Z,12.36
2018-05-23T04:46:01.910Z,12.53
2018-05-23T04:47:11.663Z,12.39
2018-05-23T04:48:21.678Z,12.45
2018-05-23T04:49:31.422Z,12.53
2018-05-23T04:50:40.364Z,12.5
2018-05-23T04:51:50.376Z,12.57
2018-05-23T04:53:00.125Z,12.63
2018-05-23T04:54:09.868Z,12.63
2018-05-23T04:55:19.625Z,12.66
2018-05-23T04:56:29.636Z,12.66
2018-05-23T04:57:39.384Z,12.65
2018-05-23T04:58:49.437Z,12.7
2018-05-23T04:59:58.887Z,12.65
2018-05-23T05:01:08.098Z,12.69
2018-05-23T05:02:17.592Z,12.66
2018-05-23T05:03:27.075Z,12.63
2018-05-23T05:04:36.820Z,12.83
2018-05-23T05:05:46.562Z,12.68
2018-05-23T05:06:56.308Z,12.63
2018-05-23T05:08:05.782Z,12.65
2018-05-23T05:09:15.527Z,12.61
2018-05-23T05:10:25.273Z,12.61
2018-05-23T05:11:35.308Z,12.58
2018-05-23T05:12:45.366Z,12.69
2018-05-23T05:13:55.250Z,12.68
2018-05-23T05:15:05.285Z,12.72
2018-05-23T05:16:15.302Z,12.8
2018-05-23T05:17:25.147Z,12.86
2018-05-23T05:18:35.159Z,12.81
2018-05-23T05:19:44.912Z,12.83
2018-05-23T05:20:54.386Z,12.84
2018-05-23T05:22:03.869Z,12.99
2018-05-23T05:23:13.348Z,13.01
2018-05-23T05:24:23.357Z,13.03
2018-05-23T05:25:33.371Z,12.99
2018-05-23T05:26:43.112Z,12.98
2018-05-23T05:27:53.128Z,12.98
2018-05-23T05:29:02.605Z,12.95
2018-05-23T05:30:12.089Z,12.95
2018-05-23T05:31:20.777Z,12.99
2018-05-23T05:32:30.257Z,12.88
2018-05-23T05:33:39.738Z,12.9
2018-05-23T05:34:49.814Z,12.94
2018-05-23T05:35:59.833Z,12.88
2018-05-23T05:37:09.043Z,12.81
2018-05-23T05:38:19.053Z,12.68
2018-05-23T05:39:28.536Z,12.81
2018-05-23T05:40:38.761Z,12.8
2018-05-23T05:41:48.786Z,12.81
2018-05-23T05:42:58.860Z,12.9
2018-05-23T05:44:08.880Z,12.84
2018-05-23T05:45:18.889Z,12.87
2018-05-23T05:46:28.636Z,12.87
2018-05-23T05:47:38.379Z,13.01
2018-05-23T05:48:47.947Z,13.02
2018-05-23T05:49:57.156Z,13.09
2018-05-23T05:51:06.912Z,13.16
2018-05-23T05:52:16.766Z,13.11
2018-05-23T05:53:26.803Z,13.17
2018-05-23T05:54:36.817Z,13.13
2018-05-23T05:55:46.032Z,13.12
2018-05-23T05:56:55.798Z,13.16
2018-05-23T05:58:05.543Z,13.17
2018-05-23T05:59:15.026Z,13.13
2018-05-23T06:00:24.500Z,13.16
2018-05-23T06:01:33.983Z,13.19
2018-05-23T06:02:43.734Z,13.21
2018-05-23T06:03:53.480Z,13.26
2018-05-23T06:05:03.223Z,13.33
2018-05-23T06:06:13.252Z,13.3
2018-05-23T06:07:22.463Z,13.33
2018-05-23T06:08:31.954Z,13.3
2018-05-23T06:09:42.346Z,13.33
2018-05-23T06:10:52.459Z,13.37
2018-05-23T06:12:02.505Z,13.37
2018-05-23T06:13:12.558Z,13.42
2018-05-23T06:14:22.571Z,13.21
2018-05-23T06:15:32.316Z,13.28
2018-05-23T06:16:41.798Z,13.46
2018-05-23T06:17:51.553Z,13.43
2018-05-23T06:19:01.307Z,13.46
2018-05-23T06:20:11.055Z,13.4
2018-05-23T06:21:21.084Z,13.55
2018-05-23T06:22:30.972Z,13.5
2018-05-23T06:23:40.717Z,13.37
2018-05-23T06:24:50.743Z,13.36
2018-05-23T06:26:00.227Z,13.39
2018-05-23T06:27:09.706Z,13.42
2018-05-23T06:28:19.718Z,13.49
2018-05-23T06:29:29.207Z,13.58
2018-05-23T06:30:38.701Z,13.47
2018-05-23T06:31:48.712Z,13.4
2018-05-23T06:32:57.922Z,13.42
2018-05-23T06:34:07.665Z,13.47
2018-05-23T06:35:17.146Z,13.52
2018-05-23T06:36:26.632Z,13.5
2018-05-23T06:37:36.108Z,13.61
2018-05-23T06:38:46.131Z,13.57
2018-05-23T06:39:56.153Z,13.6
2018-05-23T06:41:06.170Z,13.61
2018-05-23T06:42:15.112Z,13.65
2018-05-23T06:43:25.154Z,13.73
2018-05-23T06:44:35.007Z,13.78
2018-05-23T06:45:44.570Z,13.85
2018-05-23T06:46:54.613Z,13.76
2018-05-23T06:48:04.360Z,13.91
2018-05-23T06:49:14.129Z,13.93
2018-05-23T06:50:23.884Z,14.05
2018-05-23T06:51:33.901Z,14.08
2018-05-23T06:52:43.385Z,14.16
2018-05-23T06:53:53.517Z,14.26
2018-05-23T06:55:03.040Z,14.3
2018-05-23T06:56:12.917Z,14.4
2018-05-23T06:57:22.674Z,14.4
2018-05-23T06:58:31.883Z,14.59
2018-05-23T06:59:41.632Z,14.56
2018-05-23T07:00:51.380Z,14.59
2018-05-23T07:02:01.403Z,14.67
2018-05-23T07:03:11.425Z,14.62
2018-05-23T07:04:21.168Z,14.37
2018-05-23T07:05:30.915Z,14.43
2018-05-23T07:06:40.932Z,14.37
2018-05-23T07:07:50.943Z,14.48
2018-05-23T07:09:01.011Z,14.48
2018-05-23T07:10:10.764Z,14.52
2018-05-23T07:11:20.529Z,14.58
2018-05-23T07:12:30.544Z,14.7
2018-05-23T07:13:40.605Z,14.73
2018-05-23T07:14:50.367Z,14.85
2018-05-23T07:16:00.392Z,14.86
2018-05-23T07:17:09.615Z,14.73
2018-05-23T07:18:19.572Z,14.71
2018-05-23T07:19:29.366Z,14.78
2018-05-23T07:20:39.385Z,14.86
2018-05-23T07:21:49.403Z,14.94
2018-05-23T07:22:59.505Z,14.92
2018-05-23T07:24:09.350Z,15.04
2018-05-23T07:25:18.928Z,15.05
2018-05-23T07:26:28.672Z,15.14
2018-05-23T07:27:38.147Z,15.29
2018-05-23T07:28:47.894Z,15.35
2018-05-23T07:29:57.396Z,15.33
2018-05-23T07:31:07.153Z,15.41
2018-05-23T07:32:16.909Z,15.32
2018-05-23T07:33:26.924Z,15.45
2018-05-23T07:34:36.138Z,15.33
2018-05-23T07:35:45.091Z,15.51
2018-05-23T07:36:55.112Z,15.5
2018-05-23T07:38:04.865Z,15.51
2018-05-23T07:39:14.608Z,15.45
2018-05-23T07:40:24.088Z,15.48
2018-05-23T07:41:33.836Z,15.48
2018-05-23T07:42:43.049Z,15.66
2018-05-23T07:43:53.078Z,15.7
2018-05-23T07:45:03.093Z,15.69
2018-05-23T07:46:12.844Z,15.78
2018-05-23T07:47:22.588Z,15.73
2018-05-23T07:48:32.650Z,15.8
2018-05-23T07:49:42.667Z,15.88
2018-05-23T07:50:52.915Z,15.9
2018-05-23T07:52:02.128Z,15.96
2018-05-23T07:53:10.805Z,16.05
2018-05-23T07:54:20.017Z,16.02
2018-05-23T07:55:29.498Z,16.08
2018-05-23T07:56:39.462Z,16.03
2018-05-23T07:57:49.627Z,16.13
2018-05-23T07:58:59.105Z,16.21
2018-05-23T08:00:09.129Z,16.18
2018-05-23T08:01:19.145Z,16.17
2018-05-23T08:02:29.161Z,16.28
2018-05-23T08:03:38.907Z,16.32
2018-05-23T08:04:48.931Z,16.39
2018-05-23T08:05:58.679Z,16.31
2018-05-23T08:07:08.697Z,16.21
2018-05-23T08:08:18.180Z,16.22
2018-05-23T08:09:27.660Z,16.25
2018-05-23T08:10:37.410Z,16.22
2018-05-23T08:11:47.216Z,16.28
2018-05-23T08:12:56.698Z,16.39
2018-05-23T08:14:06.187Z,16.47
2018-05-23T08:15:15.937Z,16.44
2018-05-23T08:16:25.680Z,16.55
2018-05-23T08:17:35.524Z,16.51
2018-05-23T08:18:45.270Z,16.51
2018-05-23T08:19:55.024Z,16.69
2018-05-23T08:21:04.774Z,16.54
2018-05-23T08:22:14.805Z,16.72
2018-05-23T08:23:24.286Z,16.72
2018-05-23T08:24:34.631Z,16.65
2018-05-23T08:25:44.380Z,16.61
2018-05-23T08:26:54.128Z,16.8
2018-05-23T08:28:04.147Z,16.77
2018-05-23T08:29:14.166Z,16.84
2018-05-23T08:30:24.177Z,16.87
2018-05-23T08:31:33.924Z,17.01
2018-05-23T08:32:43.937Z,17.02
2018-05-23T08:33:53.960Z,17.09
2018-05-23T08:35:03.975Z,17.13
2018-05-23T08:36:13.722Z,17.09
2018-05-23T08:37:23.346Z,17.17
2018-05-23T08:38:32.629Z,17.22
2018-05-23T08:39:42.392Z,17.3
2018-05-23T08:40:52.144Z,17.32
2018-05-23T08:42:01.893Z,17.32
2018-05-23T08:43:11.113Z,17.35
2018-05-23T08:44:20.907Z,17.39
2018-05-23T08:45:30.396Z,17.38
2018-05-23T08:46:40.413Z,17.47
2018-05-23T08:47:49.890Z,17.47
2018-05-23T08:48:59.374Z,17.5
2018-05-23T08:50:09.136Z,17.53
2018-05-23T08:51:18.351Z,17.53
2018-05-23T08:52:28.096Z,17.54
2018-05-23T08:53:37.574Z,17.65
2018-05-23T08:54:47.057Z,17.52
2018-05-23T08:55:56.812Z,17.57
2018-05-23T08:57:06.295Z,17.72
2018-05-23T08:58:16.041Z,17.63
2018-05-23T08:59:25.790Z,17.76
2018-05-23T09:00:35.549Z,17.76
2018-05-23T09:01:45.565Z,17.76
2018-05-23T09:02:55.587Z,17.75
2018-05-23T09:04:05.334Z,17.72
2018-05-23T09:05:15.362Z,17.65
2018-05-23T09:06:25.380Z,17.72
2018-05-23T09:07:35.139Z,17.8
2018-05-23T09:08:45.160Z,17.78
2018-05-23T09:09:54.915Z,17.79
2018-05-23T09:11:04.407Z,17.84
2018-05-23T09:12:13.942Z,17.87
2018-05-23T09:13:24.156Z,17.91
2018-05-23T09:14:33.367Z,17.91
2018-05-23T09:15:43.387Z,17.95
2018-05-23T09:16:53.137Z,17.97
2018-05-23T09:18:02.895Z,17.97
2018-05-23T09:19:12.914Z,18.11
2018-05-23T09:20:22.665Z,18.08
2018-05-23T09:21:32.152Z,18.16
2018-05-23T09:22:41.901Z,18.19
2018-05-23T09:23:52.016Z,18.19
2018-05-23T09:25:02.035Z,18.31
2018-05-23T09:26:10.981Z,18.33
2018-05-23T09:27:21.101Z,18.3
2018-05-23T09:28:30.680Z,18.34
2018-05-23T09:29:40.426Z,18.27
2018-05-23T09:30:49.909Z,18.33
2018-05-23T09:31:59.664Z,18.55
2018-05-23T09:33:09.251Z,18.49
2018-05-23T09:34:19.007Z,18.48
2018-05-23T09:35:28.761Z,18.61
2018-05-23T09:36:38.783Z,18.42
2018-05-23T09:37:48.276Z,18.42
2018-05-23T09:38:57.756Z,18.53
2018-05-23T09:40:07.565Z,18.48
2018-05-23T09:41:17.321Z,18.61
2018-05-23T09:42:27.347Z,18.45
2018-05-23T09:43:37.360Z,18.6
2018-05-23T09:44:47.105Z,18.57
2018-05-23T09:45:56.861Z,18.63
2018-05-23T09:47:06.615Z,18.68
2018-05-23T09:48:16.642Z,18.73
2018-05-23T09:49:26.213Z,18.66
2018-05-23T09:50:35.700Z,18.68
2018-05-23T09:51:45.453Z,18.78
2018-05-23T09:52:55.477Z,18.83
2018-05-23T09:54:05.232Z,18.79
2018-05-23T09:55:15.434Z,18.73
2018-05-23T09:56:25.454Z,18.67
2018-05-23T09:57:35.469Z,18.85
2018-05-23T09:58:45.546Z,18.82
2018-05-23T09:59:55.035Z,18.83
2018-05-23T10:01:04.519Z,18.88
2018-05-23T10:02:14.326Z,19.01
2018-05-23T10:03:24.345Z,18.98
2018-05-23T10:04:33.834Z,18.96
2018-05-23T10:05:43.599Z,18.97
2018-05-23T10:06:53.629Z,19.05
2018-05-23T10:08:02.842Z,19.12
2018-05-23T10:09:12.590Z,19.17
2018-05-23T10:10:22.609Z,19.11
2018-05-23T10:11:32.632Z,19.27
2018-05-23T10:12:42.388Z,19.34
2018-05-23T10:13:52.406Z,19.48
2018-05-23T10:15:02.157Z,19.47
2018-05-23T10:16:11.639Z,19.57
2018-05-23T10:17:21.656Z,19.59
2018-05-23T10:18:31.142Z,19.66
2018-05-23T10:19:41.163Z,19.63
2018-05-23T10:20:50.909Z,19.75
2018-05-23T10:22:00.395Z,19.71
2018-05-23T10:23:10.512Z,19.89
2018-05-23T10:24:19.989Z,19.9
2018-05-23T10:25:30.025Z,20
2018-05-23T10:26:39.786Z,19.96
2018-05-23T10:27:49.545Z,20.08
2018-05-23T10:28:59.557Z,20.14
2018-05-23T10:30:09.325Z,20.24
2018-05-23T10:31:18.819Z,20.26
2018-05-23T10:32:28.567Z,20.36
2018-05-23T10:33:38.313Z,20.32
2018-05-23T10:34:48.063Z,20.44
2018-05-23T10:35:57.585Z,20.55
2018-05-23T10:37:07.118Z,20.53
2018-05-23T10:38:17.118Z,20.63
2018-05-23T10:39:26.351Z,20.64
2018-05-23T10:40:36.104Z,20.7
2018-05-23T10:41:46.129Z,20.77
2018-05-23T10:42:55.877Z,20.83
2018-05-23T10:44:05.926Z,20.88
2018-05-23T10:45:15.410Z,20.95
2018-05-23T10:46:25.541Z,20.9
2018-05-23T10:47:35.293Z,21.05
2018-05-23T10:48:45.149Z,21.1
2018-05-23T10:49:55.173Z,21.11
2018-05-23T10:51:05.280Z,21.15
2018-05-23T10:52:14.764Z,21.25
2018-05-23T10:53:24.521Z,21.32
2018-05-23T10:54:33.744Z,21.38
2018-05-23T10:55:43.768Z,21.41
2018-05-23T10:56:52.988Z,21.47
2018-05-23T10:58:03.015Z,21.54
2018-05-23T10:59:12.784Z,21.59
2018-05-23T11:00:22.820Z,21.59
2018-05-23T11:01:32.848Z,21.66
2018-05-23T11:02:42.328Z,21.66
2018-05-23T11:03:52.121Z,21.75
2018-05-23T11:05:01.888Z,21.7
2018-05-23T11:06:11.923Z,21.72
2018-05-23T11:07:21.414Z,21.81
2018-05-23T11:08:31.178Z,21.8
2018-05-23T11:09:41.203Z,21.77
2018-05-23T11:10:51.232Z,21.85
2018-05-23T11:12:01.258Z,21.88
2018-05-23T11:13:11.008Z,21.94
2018-05-23T11:14:21.035Z,21.91
2018-05-23T11:15:30.784Z,22.03
2018-05-23T11:16:40.535Z,22.1
2018-05-23T11:17:50.551Z,22.18
2018-05-23T11:19:00.565Z,22.19
2018-05-23T11:20:10.059Z,22.3
2018-05-23T11:21:20.085Z,22.31
2018-05-23T11:22:29.574Z,22.43
2018-05-23T11:23:39.328Z,22.46
2018-05-23T11:24:49.084Z,22.47
2018-05-23T11:25:59.106Z,22.61
2018-05-23T11:27:08.324Z,22.88
2018-05-23T11:28:17.805Z,23.21
2018-05-23T11:29:27.025Z,23.64
2018-05-23T11:30:37.053Z,24
2018-05-23T11:31:46.545Z,24.5
2018-05-23T11:32:56.562Z,25
2018-05-23T11:34:06.045Z,25.4
2018-05-23T11:35:15.854Z,25.83
2018-05-23T11:36:25.883Z,26.24
2018-05-23T11:37:35.928Z,26.7
2018-05-23T11:38:45.686Z,27.11
2018-05-23T11:39:55.457Z,27.5
2018-05-23T11:41:04.676Z,28.04
2018-05-23T11:42:14.448Z,28.49
2018-05-23T11:43:24.467Z,29.02
2018-05-23T11:44:34.229Z,29.39
2018-05-23T11:45:43.715Z,29.77
2018-05-23T11:46:53.476Z,30.18
2018-05-23T11:48:03.508Z,30.62
2018-05-23T11:49:13.266Z,30.99
2018-05-23T11:50:23.026Z,31.45
2018-05-23T11:51:33.052Z,31.78
2018-05-23T11:52:42.624Z,31.95
2018-05-23T11:53:52.112Z,32.16
2018-05-23T11:55:02.149Z,32.42
2018-05-23T11:56:11.921Z,32.59
2018-05-23T11:57:21.948Z,32.85
2018-05-23T11:58:31.982Z,33.12
2018-05-23T11:59:41.477Z,33.15
2018-05-23T12:00:51.239Z,33.17
2018-05-23T12:02:00.743Z,33.31
2018-05-23T12:03:10.780Z,33.58
2018-05-23T12:04:20.891Z,33.69
2018-05-23T12:05:30.654Z,33.98
2018-05-23T12:06:40.691Z,34.03
2018-05-23T12:07:50.722Z,34.26
2018-05-23T12:09:00.525Z,34.56
2018-05-23T12:10:10.316Z,34.38
2018-05-23T12:11:20.099Z,34.38
2018-05-23T12:12:29.861Z,34.46
2018-05-23T12:13:39.365Z,34.44
2018-05-23T12:14:49.130Z,34.71
2018-05-23T12:15:58.727Z,35
2018-05-23T12:17:08.494Z,35.08
2018-05-23T12:18:17.732Z,35.32
2018-05-23T12:19:27.520Z,35.64
2018-05-23T12:20:37.652Z,35.71
2018-05-23T12:21:47.688Z,35.91
2018-05-23T12:22:57.456Z,36.17
2018-05-23T12:24:07.231Z,36.62
2018-05-23T12:25:16.996Z,36.82
2018-05-23T12:26:26.768Z,36.76
2018-05-23T12:27:36.541Z,36.96
2018-05-23T12:28:46.304Z,37.14
2018-05-23T12:29:56.345Z,36.87
2018-05-23T12:31:05.580Z,36.84
2018-05-23T12:32:15.087Z,36.89
2018-05-23T12:33:24.888Z,36.92
2018-05-23T12:34:35.179Z,37.03
2018-05-23T12:35:45.070Z,37.09
2018-05-23T12:36:55.064Z,36.99
2018-05-23T12:38:04.846Z,36.87
2018-05-23T12:39:14.660Z,36.62
2018-05-23T12:40:24.425Z,36.85
2018-05-23T12:41:34.189Z,36.99
2018-05-23T12:42:43.964Z,36.75
2018-05-23T12:43:54.006Z,36.7
2018-05-23T12:45:04.053Z,36.67
2018-05-23T12:46:13.846Z,36.84
2018-05-23T12:47:23.879Z,37.03
2018-05-23T12:48:33.660Z,36.96
2018-05-23T12:49:43.704Z,37.22
2018-05-23T12:50:53.493Z,37.21
2018-05-23T12:52:03.258Z,37.29
2018-05-23T12:53:13.298Z,37.07
2018-05-23T12:54:23.332Z,37.1
2018-05-23T12:55:33.151Z,37.33
2018-05-23T12:56:42.660Z,37.48
2018-05-23T12:57:52.701Z,37.68
2018-05-23T12:59:02.751Z,37.82
2018-05-23T13:00:11.988Z,37.6
2018-05-23T13:01:21.490Z,37.45
2018-05-23T13:02:31.254Z,37.5
2018-05-23T13:03:41.288Z,37.63
2018-05-23T13:04:51.060Z,37.64
2018-05-23T13:06:00.830Z,37.31
2018-05-23T13:07:10.071Z,37.09
2018-05-23T13:08:19.941Z,37.03
2018-05-23T13:09:29.734Z,37.01
2018-05-23T13:10:39.242Z,36.73
2018-05-23T13:11:49.015Z,36.92
2018-05-23T13:12:58.518Z,36.66
2018-05-23T13:14:08.560Z,36.99
2018-05-23T13:15:18.596Z,36.63
2018-05-23T13:16:28.365Z,37.01
2018-05-23T13:17:38.131Z,36.89
2018-05-23T13:18:47.909Z,37.03
2018-05-23T13:19:57.948Z,36.69
2018-05-23T13:21:08.002Z,36.89
2018-05-23T13:22:17.499Z,37.11
2018-05-23T13:23:26.998Z,37
2018-05-23T13:24:36.230Z,37.21
2018-05-23T13:25:45.909Z,37.48
2018-05-23T13:26:56.060Z,37.44
2018-05-23T13:28:05.823Z,37.66
2018-05-23T13:29:15.592Z,37.64
2018-05-23T13:30:25.370Z,37.71
2018-05-23T13:31:35.141Z,37.8
2018-05-23T13:32:44.654Z,37.71
2018-05-23T13:33:54.438Z,37.66
2018-05-23T13:35:04.203Z,37.64
2018-05-23T13:36:13.981Z,37.82
2018-05-23T13:37:24.014Z,37.98
2018-05-23T13:38:33.780Z,37.71
2018-05-23T13:39:43.814Z,37.4
2018-05-23T13:40:53.583Z,37.5
2018-05-23T13:42:03.091Z,37.33
2018-05-23T13:43:12.864Z,37.5
2018-05-23T13:44:22.904Z,37.67
2018-05-23T13:45:32.414Z,37.83
2018-05-23T13:46:42.456Z,38
2018-05-23T13:47:52.035Z,37.95
2018-05-23T13:49:02.071Z,37.86
2018-05-23T13:50:11.309Z,37.86
2018-05-23T13:51:21.161Z,38.04
2018-05-23T13:52:30.664Z,38.28
2018-05-23T13:53:40.436Z,38.09
2018-05-23T13:54:50.254Z,38.16
2018-05-23T13:56:00.023Z,38.29
2018-05-23T13:57:09.793Z,38.27
2018-05-23T13:58:19.578Z,38.36
2018-05-23T13:59:29.624Z,38.5
2018-05-23T14:00:39.128Z,38.73
2018-05-23T14:01:49.045Z,38.76
2018-05-23T14:02:58.996Z,39.01
2018-05-23T14:04:08.767Z,39.27
2018-05-23T14:05:18.793Z,39.39
2018-05-23T14:06:28.562Z,39.59
2018-05-23T14:07:38.606Z,39.63
2018-05-23T14:08:47.841Z,39.66
2018-05-23T14:09:57.615Z,39.54
2018-05-23T14:11:07.391Z,39.56
2018-05-23T14:12:17.437Z,39.61
2018-05-23T14:13:27.482Z,39.63
2018-05-23T14:14:37.518Z,39.38
2018-05-23T14:15:47.290Z,39.66
2018-05-23T14:16:57.325Z,39.94
2018-05-23T14:18:06.830Z,40.1
2018-05-23T14:19:16.958Z,40.26
2018-05-23T14:20:26.595Z,40.23
2018-05-23T14:21:36.368Z,40.28
2018-05-23T14:22:46.402Z,40.35
2018-05-23T14:23:55.904Z,40.39
2018-05-23T14:25:04.868Z,40.23
2018-05-23T14:26:14.633Z,40.49
2018-05-23T14:27:24.671Z,40.77
2018-05-23T14:28:33.724Z,40.76
2018-05-23T14:29:43.674Z,40.71
2018-05-23T14:30:53.439Z,41.05
2018-05-23T14:32:03.212Z,40.93
2018-05-23T14:33:13.248Z,40.49
2018-05-23T14:34:23.288Z,40.48
2018-05-23T14:35:33.324Z,40.58
2018-05-23T14:36:42.833Z,40.22
2018-05-23T14:37:52.330Z,40.19
2018-05-23T14:39:02.098Z,40.04
2018-05-23T14:40:11.603Z,39.93
2018-05-23T14:41:21.104Z,39.78
2018-05-23T14:42:31.149Z,39.79
2018-05-23T14:43:40.907Z,39.68
2018-05-23T14:44:51.202Z,39.8
2018-05-23T14:46:01.249Z,39.85
2018-05-23T14:47:10.483Z,39.76
2018-05-23T14:48:20.248Z,39.45
2018-05-23T14:49:30.314Z,39.7
2018-05-23T14:50:40.079Z,39.63
2018-05-23T14:51:49.846Z,39.94
2018-05-23T14:52:59.887Z,40
2018-05-23T14:54:09.655Z,40.44
2018-05-23T14:55:19.698Z,40.42
2018-05-23T14:56:29.466Z,40.2
2018-05-23T14:57:39.501Z,40.12
2018-05-23T14:58:49.536Z,40.02
2018-05-23T14:59:59.311Z,40.13
2018-05-23T15:01:09.082Z,40.22
2018-05-23T15:02:18.964Z,40.1
2018-05-23T15:03:29.161Z,40.04
2018-05-23T15:04:39.194Z,40.14
2018-05-23T15:05:48.972Z,40.16